Time;durP1;ratioP1;P1;durP2;ratioP2;P2;SDS_P1;SDS_P2;PMS_P1;PMS_P2;Temp;Humidity;BMP_temperature;BMP_pressure;BME280_temperature;BME280_humidity;BME280_pressure;Samples;Min_cycle;Max_cycle;Signal;HPM_P1;HPM_P2
2022/10/31 00:02:19;;;;;;;3.55;3.30;;;;;;;;;;10430033;28;20226;-69
2022/10/31 00:07:20;;;;;;;6.68;3.35;;;;;;;;;;10425747;28;20223;-69
2022/10/31 00:12:21;;;;;;;5.65;3.30;;;;;;;;;;10428646;28;20229;-68
2022/10/31 00:17:22;;;;;;;5.95;3.25;;;;;;;;;;10426693;28;20207;-69
2022/10/31 00:22:23;;;;;;;7.13;3.45;;;;;;;;;;10428273;28;21062;-69
2022/10/31 00:27:24;;;;;;;4.10;3.13;;;;;;;;;;10428737;28;20587;-69
2022/10/31 00:32:30;;;;;;;9.82;4.20;;;;;;;;;;10423399;28;20237;-69
2022/10/31 00:37:31;;;;;;;5.25;3.42;;;;;;;;;;10425763;28;20227;-69
2022/10/31 00:42:32;;;;;;;3.38;3.17;;;;;;;;;;10428871;28;20238;-69
2022/10/31 00:47:33;;;;;;;3.42;3.10;;;;;;;;;;10427362;28;20284;-69
2022/10/31 00:52:35;;;;;;;2.97;2.60;;;;;;;;;;10431578;28;20227;-69
2022/10/31 00:57:37;;;;;;;6.13;3.20;;;;;;;;;;10425000;28;20616;-69
2022/10/31 01:02:39;;;;;;;4.22;2.80;;;;;;;;;;10418733;28;20623;-69
2022/10/31 01:07:41;;;;;;;10.27;2.90;;;;;;;;;;10423183;28;20215;-69
2022/10/31 01:12:45;;;;;;;3.47;2.63;;;;;;;;;;10421998;28;20218;-69
2022/10/31 01:17:48;;;;;;;3.90;2.88;;;;;;;;;;10438111;28;20318;-70
2022/10/31 01:22:49;;;;;;;3.25;3.05;;;;;;;;;;10424965;28;20258;-69
2022/10/31 01:27:50;;;;;;;5.63;3.25;;;;;;;;;;10437566;28;20227;-69
2022/10/31 01:32:51;;;;;;;4.47;3.00;;;;;;;;;;10421386;28;20303;-69
2022/10/31 01:37:52;;;;;;;3.42;3.13;;;;;;;;;;10423994;28;20227;-70
2022/10/31 01:42:53;;;;;;;3.10;2.90;;;;;;;;;;10427220;28;20629;-70
2022/10/31 01:47:55;;;;;;;3.75;2.95;;;;;;;;;;10421841;28;20860;-69
2022/10/31 01:52:56;;;;;;;3.05;2.83;;;;;;;;;;10424073;28;20214;-70
2022/10/31 01:58:04;;;;;;;4.68;2.85;;;;;;;;;;10421206;28;20220;-70
2022/10/31 02:03:05;;;;;;;2.97;2.78;;;;;;;;;;10424076;28;20280;-69
2022/10/31 02:08:09;;;;;;;5.50;2.72;;;;;;;;;;10420324;28;20219;-71
2022/10/31 02:13:12;;;;;;;3.40;2.20;;;;;;;;;;10418721;28;20305;-69
2022/10/31 02:18:20;;;;;;;5.07;2.33;;;;;;;;;;10417918;28;20750;-70
2022/10/31 02:23:42;;;;;;;8.15;3.28;;;;;;;;;;10419631;28;20227;-69
2022/10/31 02:29:03;;;;;;;6.00;2.45;;;;;;;;;;10418514;28;20222;-68
2022/10/31 02:34:04;;;;;;;3.88;2.65;;;;;;;;;;10378611;28;20239;-69
2022/10/31 02:39:22;;;;;;;5.22;3.30;;;;;;;;;;10420130;28;20214;-69
2022/10/31 02:44:36;;;;;;;2.47;2.17;;;;;;;;;;10420974;28;20333;-71
2022/10/31 02:49:54;;;;;;;2.85;2.70;;;;;;;;;;10421601;28;20222;-71
2022/10/31 02:54:55;;;;;;;2.78;2.58;;;;;;;;;;10421396;28;20242;-71
2022/10/31 03:00:01;;;;;;;2.50;2.30;;;;;;;;;;10420979;28;20226;-71
2022/10/31 03:05:03;;;;;;;2.70;2.50;;;;;;;;;;10421342;28;20298;-71
2022/10/31 03:10:20;;;;;;;2.67;2.20;;;;;;;;;;10424671;28;20253;-69
2022/10/31 03:15:22;;;;;;;4.47;2.33;;;;;;;;;;10416811;28;20223;-71
2022/10/31 03:20:26;;;;;;;2.70;2.60;;;;;;;;;;10408176;28;20773;-68
2022/10/31 03:25:28;;;;;;;4.88;2.75;;;;;;;;;;10421639;28;20717;-69
2022/10/31 03:30:33;;;;;;;2.83;2.63;;;;;;;;;;10420095;28;20238;-68
2022/10/31 03:35:35;;;;;;;3.03;2.63;;;;;;;;;;10427689;28;20216;-69
2022/10/31 03:40:38;;;;;;;4.85;2.67;;;;;;;;;;10427210;28;20230;-69
2022/10/31 03:45:42;;;;;;;4.07;3.10;;;;;;;;;;10424286;28;20238;-69
2022/10/31 03:51:03;;;;;;;4.07;3.10;;;;;;;;;;10441288;28;20219;-69
2022/10/31 03:56:11;;;;;;;3.90;2.78;;;;;;;;;;10395078;28;20246;-70
2022/10/31 04:01:12;;;;;;;3.17;2.58;;;;;;;;;;10422873;28;20707;-69
2022/10/31 04:06:17;;;;;;;4.13;3.38;;;;;;;;;;10423809;28;20259;-71
2022/10/31 04:11:20;;;;;;;5.03;3.08;;;;;;;;;;10425289;28;20303;-69
2022/10/31 04:16:30;;;;;;;3.08;2.88;;;;;;;;;;10424229;28;20321;-69
2022/10/31 04:21:31;;;;;;;3.53;3.30;;;;;;;;;;10425393;28;20230;-70
2022/10/31 04:26:33;;;;;;;4.47;3.13;;;;;;;;;;10430204;28;20273;-69
2022/10/31 04:31:34;;;;;;;3.50;3.17;;;;;;;;;;10423209;28;20223;-69
2022/10/31 04:36:35;;;;;;;7.88;3.67;;;;;;;;;;10422336;28;20230;-70
2022/10/31 04:41:36;;;;;;;4.10;3.65;;;;;;;;;;10427612;28;20286;-69
2022/10/31 04:46:43;;;;;;;3.42;2.97;;;;;;;;;;10425047;28;20294;-69
2022/10/31 04:51:44;;;;;;;9.20;4.28;;;;;;;;;;10434173;28;20585;-70
2022/10/31 04:56:48;;;;;;;5.35;4.28;;;;;;;;;;10421324;28;20215;-69
2022/10/31 05:01:55;;;;;;;3.53;3.22;;;;;;;;;;10419122;28;20229;-68
2022/10/31 05:07:03;;;;;;;9.48;3.95;;;;;;;;;;10422593;28;20214;-69
2022/10/31 05:12:05;;;;;;;6.20;4.28;;;;;;;;;;10438386;28;20222;-68
2022/10/31 05:17:26;;;;;;;12.75;4.90;;;;;;;;;;10422619;28;20878;-69
2022/10/31 05:23:00;;;;;;;7.75;4.63;;;;;;;;;;10394500;28;20349;-69
2022/10/31 05:28:02;;;;;;;16.85;7.93;;;;;;;;;;10417167;28;20323;-68
2022/10/31 05:33:03;;;;;;;15.95;8.30;;;;;;;;;;10416455;28;20351;-69
2022/10/31 05:38:23;;;;;;;17.48;8.18;;;;;;;;;;10422765;28;20222;-68
2022/10/31 05:43:24;;;;;;;16.23;8.20;;;;;;;;;;10419416;28;20769;-69
2022/10/31 05:48:25;;;;;;;20.65;9.27;;;;;;;;;;10424694;28;20225;-69
2022/10/31 05:54:02;;;;;;;19.48;9.52;;;;;;;;;;10381020;28;20222;-69
2022/10/31 05:59:04;;;;;;;18.15;8.68;;;;;;;;;;10423129;28;20306;-69
2022/10/31 06:04:05;;;;;;;19.45;8.73;;;;;;;;;;10422501;28;21345;-68
2022/10/31 06:09:08;;;;;;;17.92;9.07;;;;;;;;;;10420011;28;20215;-69
2022/10/31 06:14:11;;;;;;;19.35;9.82;;;;;;;;;;10422286;28;20226;-69
2022/10/31 06:19:40;;;;;;;21.60;9.27;;;;;;;;;;10516861;27;20578;-68
2022/10/31 06:24:43;;;;;;;24.60;10.57;;;;;;;;;;10515948;28;20213;-69
2022/10/31 06:30:06;;;;;;;25.85;10.88;;;;;;;;;;10532649;28;20276;-69
2022/10/31 06:35:10;;;;;;;30.02;11.23;;;;;;;;;;10509101;28;20198;-68
2022/10/31 06:40:11;;;;;;;26.60;10.38;;;;;;;;;;10506737;28;20269;-69
2022/10/31 06:45:33;;;;;;;37.55;13.15;;;;;;;;;;10468442;28;20212;-69
2022/10/31 06:50:51;;;;;;;50.75;16.13;;;;;;;;;;10502849;28;20202;-69
2022/10/31 06:55:53;;;;;;;55.17;18.70;;;;;;;;;;10474034;28;20807;-68
2022/10/31 07:00:54;;;;;;;72.82;21.75;;;;;;;;;;10478795;28;20218;-69
2022/10/31 07:05:57;;;;;;;76.10;21.80;;;;;;;;;;10503993;28;20218;-69
2022/10/31 07:10:58;;;;;;;64.50;21.52;;;;;;;;;;10488049;28;20229;-70
2022/10/31 07:16:01;;;;;;;71.03;22.10;;;;;;;;;;10501111;28;20226;-69
2022/10/31 07:21:03;;;;;;;67.05;21.73;;;;;;;;;;10486867;28;20305;-69
2022/10/31 07:26:04;;;;;;;71.20;20.98;;;;;;;;;;10465413;28;20296;-70
2022/10/31 07:31:13;;;;;;;79.15;23.02;;;;;;;;;;10474136;28;20222;-69
2022/10/31 07:36:15;;;;;;;83.30;25.10;;;;;;;;;;10477855;28;20230;-68
2022/10/31 07:41:19;;;;;;;93.35;24.15;;;;;;;;;;10439702;28;20219;-69
2022/10/31 07:46:22;;;;;;;83.55;24.05;;;;;;;;;;10476637;28;20213;-69
2022/10/31 07:51:49;;;;;;;74.65;21.63;;;;;;;;;;10439410;28;20216;-70
2022/10/31 07:57:09;;;;;;;76.50;22.60;;;;;;;;;;10433528;28;20223;-70
2022/10/31 08:02:10;;;;;;;79.03;21.63;;;;;;;;;;10448693;28;20211;-70
2022/10/31 08:07:23;;;;;;;75.43;21.90;;;;;;;;;;10440027;28;20333;-71
2022/10/31 08:12:31;;;;;;;74.88;21.35;;;;;;;;;;10432542;28;20721;-71
2022/10/31 08:17:35;;;;;;;93.63;22.25;;;;;;;;;;10472604;28;20678;-70
2022/10/31 08:22:36;;;;;;;72.18;21.58;;;;;;;;;;10440852;28;20632;-70
2022/10/31 08:27:38;;;;;;;65.03;21.13;;;;;;;;;;10430960;28;20206;-72
2022/10/31 08:32:39;;;;;;;72.53;22.40;;;;;;;;;;10456924;28;20206;-70
2022/10/31 08:37:59;;;;;;;81.20;21.70;;;;;;;;;;10434674;28;20222;-70
2022/10/31 08:43:03;;;;;;;87.22;24.80;;;;;;;;;;10429830;28;20347;-70
2022/10/31 08:48:05;;;;;;;76.30;23.63;;;;;;;;;;10468818;28;20288;-70
2022/10/31 08:53:08;;;;;;;54.08;20.35;;;;;;;;;;10406616;28;20224;-71
2022/10/31 08:58:13;;;;;;;67.28;21.15;;;;;;;;;;10426957;28;20280;-71
2022/10/31 09:03:22;;;;;;;66.03;21.75;;;;;;;;;;10446741;28;20272;-71
2022/10/31 09:08:23;;;;;;;65.13;19.88;;;;;;;;;;10466884;28;20273;-70
2022/10/31 09:13:25;;;;;;;70.00;20.05;;;;;;;;;;10430161;28;20225;-70
2022/10/31 09:18:45;;;;;;;67.18;21.00;;;;;;;;;;10435667;28;20582;-70
2022/10/31 09:23:53;;;;;;;64.80;19.65;;;;;;;;;;10446378;28;20210;-70
2022/10/31 09:28:54;;;;;;;63.90;20.17;;;;;;;;;;10433937;28;20567;-70
2022/10/31 09:33:58;;;;;;;60.38;18.65;;;;;;;;;;10462815;28;20218;-71
2022/10/31 09:39:11;;;;;;;48.75;16.85;;;;;;;;;;10436708;28;20333;-71
2022/10/31 09:44:19;;;;;;;61.42;18.58;;;;;;;;;;10464023;28;20211;-70
2022/10/31 09:49:26;;;;;;;65.90;20.40;;;;;;;;;;10425176;28;20256;-71
2022/10/31 09:54:33;;;;;;;54.00;19.17;;;;;;;;;;10443661;28;20635;-71
2022/10/31 09:59:39;;;;;;;58.78;20.55;;;;;;;;;;10431832;28;20671;-73
2022/10/31 10:05:00;;;;;;;52.70;19.45;;;;;;;;;;10464007;28;20210;-70
2022/10/31 10:10:02;;;;;;;50.28;19.55;;;;;;;;;;10471226;28;20214;-71
2022/10/31 10:15:32;;;;;;;49.88;20.27;;;;;;;;;;10386622;28;20326;-69
2022/10/31 10:20:52;;;;;;;49.63;19.25;;;;;;;;;;10433593;28;20241;-70
2022/10/31 10:25:57;;;;;;;57.00;19.95;;;;;;;;;;10469024;28;20217;-71
2022/10/31 10:31:07;;;;;;;48.60;20.02;;;;;;;;;;10436294;28;20296;-70
2022/10/31 10:36:14;;;;;;;54.63;19.65;;;;;;;;;;10441288;28;21040;-71
2022/10/31 10:41:21;;;;;;;61.08;19.65;;;;;;;;;;10433293;28;20424;-71
2022/10/31 10:52:00;;;;;;;49.30;18.98;;;;;;;;;;10437427;28;20215;-70
2022/10/31 10:57:11;;;;;;;47.17;18.38;;;;;;;;;;10439088;28;20279;-70
2022/10/31 11:02:38;;;;;;;52.97;19.65;;;;;;;;;;10429874;28;20245;-71
2022/10/31 11:07:40;;;;;;;60.25;24.33;;;;;;;;;;10449431;28;20310;-71
2022/10/31 11:12:42;;;;;;;46.63;20.80;;;;;;;;;;10477761;28;20218;-70
2022/10/31 11:17:43;;;;;;;48.88;19.75;;;;;;;;;;10439813;28;20973;-71
2022/10/31 11:22:45;;;;;;;53.92;18.33;;;;;;;;;;10443238;28;20289;-70
2022/10/31 11:27:46;;;;;;;42.22;19.13;;;;;;;;;;10436892;28;20215;-71
2022/10/31 11:32:50;;;;;;;54.50;19.33;;;;;;;;;;10445258;28;20346;-72
2022/10/31 11:37:58;;;;;;;51.15;18.73;;;;;;;;;;10456207;28;20223;-71
2022/10/31 11:42:59;;;;;;;36.78;17.02;;;;;;;;;;10443976;28;20222;-70
2022/10/31 11:48:01;;;;;;;43.55;17.30;;;;;;;;;;10438589;28;20221;-72
2022/10/31 11:53:03;;;;;;;43.88;19.10;;;;;;;;;;10443063;28;20214;-72
2022/10/31 11:58:05;;;;;;;41.65;17.23;;;;;;;;;;10432756;28;20296;-70
2022/10/31 12:03:15;;;;;;;42.15;18.02;;;;;;;;;;10472722;28;20699;-71
2022/10/31 12:08:16;;;;;;;48.22;18.48;;;;;;;;;;10435805;28;20217;-70
2022/10/31 12:13:23;;;;;;;32.95;16.63;;;;;;;;;;10436245;28;21102;-71
2022/10/31 12:19:03;;;;;;;42.50;16.52;;;;;;;;;;10443607;28;20257;-70
2022/10/31 12:24:04;;;;;;;39.38;17.70;;;;;;;;;;10387998;28;21112;-70
2022/10/31 12:29:14;;;;;;;42.92;17.05;;;;;;;;;;10430120;28;20255;-70
2022/10/31 12:34:29;;;;;;;34.97;16.55;;;;;;;;;;10435386;28;20207;-70
2022/10/31 12:39:37;;;;;;;41.13;17.48;;;;;;;;;;10435550;28;21134;-70
2022/10/31 12:44:57;;;;;;;39.55;17.92;;;;;;;;;;10437508;28;20752;-70
2022/10/31 12:50:12;;;;;;;36.30;16.88;;;;;;;;;;10432729;28;20207;-70
2022/10/31 12:55:16;;;;;;;36.03;16.80;;;;;;;;;;10392732;28;20642;-70
2022/10/31 13:00:19;;;;;;;38.20;17.70;;;;;;;;;;10438731;28;20294;-70
2022/10/31 13:05:20;;;;;;;37.30;18.15;;;;;;;;;;10440432;28;20647;-70
2022/10/31 13:10:24;;;;;;;36.10;16.98;;;;;;;;;;10434894;28;20221;-70
2022/10/31 13:15:27;;;;;;;31.15;16.38;;;;;;;;;;10450467;28;20702;-70
2022/10/31 13:20:39;;;;;;;46.40;20.30;;;;;;;;;;10439620;28;20219;-70
2022/10/31 13:25:43;;;;;;;54.55;24.65;;;;;;;;;;10435223;28;20215;-71
2022/10/31 13:30:44;;;;;;;37.80;17.60;;;;;;;;;;10440584;28;20206;-71
2022/10/31 13:35:45;;;;;;;42.90;16.67;;;;;;;;;;10453277;28;20218;-71
2022/10/31 13:40:52;;;;;;;44.65;18.00;;;;;;;;;;10441186;28;20225;-71
2022/10/31 13:45:54;;;;;;;45.05;17.70;;;;;;;;;;10437327;28;20768;-71
2022/10/31 13:51:18;;;;;;;43.78;19.15;;;;;;;;;;10434022;28;20210;-70
2022/10/31 13:56:30;;;;;;;48.05;19.88;;;;;;;;;;10435114;28;20724;-70
2022/10/31 14:01:32;;;;;;;40.20;19.23;;;;;;;;;;10431190;28;20214;-70
2022/10/31 14:06:57;;;;;;;48.45;17.80;;;;;;;;;;10436592;28;20300;-70
2022/10/31 14:12:00;;;;;;;50.78;19.00;;;;;;;;;;10426662;28;20221;-69
2022/10/31 14:17:01;;;;;;;43.17;18.45;;;;;;;;;;10428049;28;20604;-71
2022/10/31 14:22:03;;;;;;;41.38;18.15;;;;;;;;;;10424856;28;20729;-70
2022/10/31 14:27:24;;;;;;;54.55;19.50;;;;;;;;;;10422813;28;20651;-70
2022/10/31 14:32:26;;;;;;;46.05;19.05;;;;;;;;;;10416186;28;20218;-73
2022/10/31 14:37:43;;;;;;;46.55;18.27;;;;;;;;;;10420333;28;20226;-70
2022/10/31 14:42:56;;;;;;;45.65;18.25;;;;;;;;;;10440416;28;20214;-72
2022/10/31 14:48:00;;;;;;;46.15;19.65;;;;;;;;;;10435776;28;20310;-72
2022/10/31 14:53:03;;;;;;;50.55;18.52;;;;;;;;;;10440914;28;20215;-70
2022/10/31 14:58:07;;;;;;;62.10;19.60;;;;;;;;;;10430257;28;20269;-69
2022/10/31 15:03:24;;;;;;;48.88;17.45;;;;;;;;;;10432409;28;20601;-71
2022/10/31 15:08:33;;;;;;;37.13;17.45;;;;;;;;;;10453506;28;20597;-70
2022/10/31 15:13:34;;;;;;;42.55;16.38;;;;;;;;;;10443996;28;20221;-69
2022/10/31 15:18:35;;;;;;;43.45;17.00;;;;;;;;;;10403522;28;20227;-71
2022/10/31 15:23:37;;;;;;;47.90;19.92;;;;;;;;;;10412691;28;20214;-70
2022/10/31 15:28:38;;;;;;;47.33;19.27;;;;;;;;;;10397337;28;20234;-70
2022/10/31 15:33:47;;;;;;;103.18;30.88;;;;;;;;;;10398965;28;20900;-68
2022/10/31 15:38:49;;;;;;;58.72;23.88;;;;;;;;;;10395799;28;20219;-69
2022/10/31 15:43:50;;;;;;;64.82;28.10;;;;;;;;;;10369045;28;20219;-70
2022/10/31 15:48:51;;;;;;;50.35;26.40;;;;;;;;;;10365857;28;20242;-71
2022/10/31 15:53:54;;;;;;;43.63;20.30;;;;;;;;;;10396062;28;20215;-71
2022/10/31 15:58:56;;;;;;;44.38;20.23;;;;;;;;;;10393529;28;20230;-71
2022/10/31 16:04:02;;;;;;;51.20;21.60;;;;;;;;;;10392926;28;20220;-71
2022/10/31 16:09:05;;;;;;;53.20;24.95;;;;;;;;;;10394140;28;20215;-71
2022/10/31 16:14:08;;;;;;;49.28;22.27;;;;;;;;;;10389621;28;20222;-72
2022/10/31 16:19:17;;;;;;;48.05;19.52;;;;;;;;;;10414766;28;20976;-69
2022/10/31 16:24:33;;;;;;;49.60;19.60;;;;;;;;;;10398182;28;20219;-71
2022/10/31 16:29:38;;;;;;;56.30;22.95;;;;;;;;;;10393613;28;20614;-71
2022/10/31 16:34:39;;;;;;;52.30;21.67;;;;;;;;;;10391875;28;20211;-69
2022/10/31 16:39:40;;;;;;;57.72;24.27;;;;;;;;;;10374913;28;20707;-71
2022/10/31 16:44:44;;;;;;;91.65;32.60;;;;;;;;;;10407269;28;20215;-72
2022/10/31 16:49:47;;;;;;;63.70;29.00;;;;;;;;;;10370444;28;20219;-69
2022/10/31 16:54:48;;;;;;;52.65;22.90;;;;;;;;;;10394302;28;20311;-68
2022/10/31 16:59:53;;;;;;;52.25;22.40;;;;;;;;;;10368898;28;20280;-69
2022/10/31 17:04:54;;;;;;;52.88;21.75;;;;;;;;;;10393761;28;20362;-71
2022/10/31 17:09:56;;;;;;;60.05;21.50;;;;;;;;;;10367937;28;20215;-67
2022/10/31 17:14:57;;;;;;;51.13;21.73;;;;;;;;;;10382854;28;20224;-69
2022/10/31 17:19:58;;;;;;;51.22;19.48;;;;;;;;;;10425719;28;20238;-71
2022/10/31 17:24:59;;;;;;;48.30;20.63;;;;;;;;;;10412901;28;20267;-68
2022/10/31 17:30:00;;;;;;;52.42;21.42;;;;;;;;;;10431532;28;20272;-71
2022/10/31 17:35:01;;;;;;;46.88;19.55;;;;;;;;;;10438992;28;20202;-70
2022/10/31 17:40:03;;;;;;;53.50;19.38;;;;;;;;;;10414570;28;20882;-70
2022/10/31 17:45:05;;;;;;;45.17;21.10;;;;;;;;;;10415642;28;20764;-72
2022/10/31 17:50:06;;;;;;;51.08;21.92;;;;;;;;;;10418108;28;20693;-73
2022/10/31 17:55:08;;;;;;;52.08;22.23;;;;;;;;;;10414656;28;20549;-72
2022/10/31 18:00:11;;;;;;;48.47;21.10;;;;;;;;;;10444260;28;20178;-70
2022/10/31 18:05:12;;;;;;;50.05;21.40;;;;;;;;;;10424556;28;20658;-74
2022/10/31 18:10:13;;;;;;;45.80;21.17;;;;;;;;;;10409063;28;20563;-72
2022/10/31 18:15:16;;;;;;;47.92;19.08;;;;;;;;;;10422623;28;20219;-73
2022/10/31 18:20:17;;;;;;;52.78;22.33;;;;;;;;;;10385306;28;20184;-74
2022/10/31 18:25:18;;;;;;;43.75;20.25;;;;;;;;;;10399932;28;20184;-70
2022/10/31 18:30:19;;;;;;;51.67;21.90;;;;;;;;;;10369355;28;20176;-72
2022/10/31 18:35:20;;;;;;;42.55;21.40;;;;;;;;;;10367555;28;20179;-73
2022/10/31 18:40:21;;;;;;;45.78;20.77;;;;;;;;;;10388635;28;20219;-73
2022/10/31 18:45:23;;;;;;;43.67;19.30;;;;;;;;;;10370229;28;20859;-73
2022/10/31 18:50:24;;;;;;;40.58;18.67;;;;;;;;;;10386079;28;20215;-74
2022/10/31 18:55:25;;;;;;;69.47;25.13;;;;;;;;;;10388219;28;20211;-72
2022/10/31 19:00:26;;;;;;;54.58;21.60;;;;;;;;;;10389075;28;20215;-74
2022/10/31 19:05:27;;;;;;;211.75;85.00;;;;;;;;;;10385062;28;21103;-72
2022/10/31 19:10:28;;;;;;;293.55;121.55;;;;;;;;;;10364003;28;20251;-69
2022/10/31 19:15:30;;;;;;;86.10;42.20;;;;;;;;;;10381164;28;20224;-72
2022/10/31 19:20:31;;;;;;;123.68;60.22;;;;;;;;;;10385481;28;20695;-72
2022/10/31 19:25:32;;;;;;;119.75;51.88;;;;;;;;;;10390167;28;20293;-71
2022/10/31 19:30:34;;;;;;;49.88;23.45;;;;;;;;;;10371790;28;20215;-71
2022/10/31 19:35:35;;;;;;;84.32;42.05;;;;;;;;;;10379157;28;20229;-71
2022/10/31 19:40:36;;;;;;;53.08;19.35;;;;;;;;;;10374072;28;20211;-71
2022/10/31 19:45:38;;;;;;;40.08;20.75;;;;;;;;;;10384245;28;20369;-72
2022/10/31 19:50:39;;;;;;;48.65;21.75;;;;;;;;;;10404390;28;20214;-72
2022/10/31 19:55:40;;;;;;;55.05;24.33;;;;;;;;;;10395239;28;20306;-72
2022/10/31 20:00:41;;;;;;;64.63;25.88;;;;;;;;;;10393028;28;20222;-71
2022/10/31 20:05:44;;;;;;;49.95;22.35;;;;;;;;;;10391546;28;20283;-71
2022/10/31 20:10:55;;;;;;;52.28;21.38;;;;;;;;;;10392163;28;20594;-73
2022/10/31 20:15:59;;;;;;;40.17;19.50;;;;;;;;;;10403543;28;20222;-73
2022/10/31 20:21:03;;;;;;;37.50;18.40;;;;;;;;;;10436684;28;20235;-73
2022/10/31 20:26:04;;;;;;;36.83;18.23;;;;;;;;;;10433785;28;20215;-72
2022/10/31 20:31:10;;;;;;;56.85;20.30;;;;;;;;;;10432725;28;20210;-74
2022/10/31 20:36:11;;;;;;;43.95;20.88;;;;;;;;;;10434556;28;20245;-74
2022/10/31 20:41:14;;;;;;;40.22;17.45;;;;;;;;;;10407382;28;20670;-70
2022/10/31 20:46:19;;;;;;;35.65;17.58;;;;;;;;;;10430505;28;20882;-71
2022/10/31 20:51:24;;;;;;;38.90;17.15;;;;;;;;;;10426765;28;20238;-69
2022/10/31 20:56:26;;;;;;;39.80;19.35;;;;;;;;;;10428211;28;20211;-75
2022/10/31 21:01:29;;;;;;;38.65;18.13;;;;;;;;;;10434339;28;20213;-74
2022/10/31 21:06:30;;;;;;;44.60;20.35;;;;;;;;;;10435726;28;20766;-72
2022/10/31 21:11:31;;;;;;;38.78;17.63;;;;;;;;;;10419376;28;20242;-72
2022/10/31 21:16:35;;;;;;;39.67;17.67;;;;;;;;;;10435250;28;20219;-74
2022/10/31 21:21:36;;;;;;;33.05;16.80;;;;;;;;;;10409828;28;20699;-74
2022/10/31 21:26:39;;;;;;;43.60;18.05;;;;;;;;;;10412950;28;20223;-74
2022/10/31 21:31:41;;;;;;;31.52;16.40;;;;;;;;;;10430475;28;20736;-74
2022/10/31 21:36:42;;;;;;;41.28;19.17;;;;;;;;;;10428474;28;20226;-74
2022/10/31 21:41:43;;;;;;;34.60;17.48;;;;;;;;;;10426149;28;20217;-74
2022/10/31 21:46:46;;;;;;;50.72;18.70;;;;;;;;;;10409153;28;20276;-74
2022/10/31 21:51:48;;;;;;;41.25;18.90;;;;;;;;;;10428114;28;20305;-73
2022/10/31 21:56:50;;;;;;;33.22;17.70;;;;;;;;;;10429293;28;20222;-74
2022/10/31 22:01:52;;;;;;;37.63;18.08;;;;;;;;;;10429130;28;20577;-74
2022/10/31 22:06:53;;;;;;;37.38;17.52;;;;;;;;;;10431605;28;20217;-74
2022/10/31 22:11:54;;;;;;;35.63;17.05;;;;;;;;;;10413577;28;20229;-74
2022/10/31 22:16:55;;;;;;;33.08;15.85;;;;;;;;;;10406897;28;20272;-74
2022/10/31 22:21:56;;;;;;;32.63;17.10;;;;;;;;;;10414049;28;20211;-74
2022/10/31 22:26:58;;;;;;;35.80;17.00;;;;;;;;;;10432781;28;21030;-74
2022/10/31 22:32:02;;;;;;;31.85;15.70;;;;;;;;;;10437465;28;20223;-73
2022/10/31 22:37:03;;;;;;;42.00;17.92;;;;;;;;;;10429512;28;20722;-74
2022/10/31 22:42:04;;;;;;;41.40;16.20;;;;;;;;;;10410505;28;21074;-74
2022/10/31 22:47:05;;;;;;;28.45;16.25;;;;;;;;;;10436572;28;20593;-72
2022/10/31 22:52:06;;;;;;;33.88;16.42;;;;;;;;;;10416924;28;20202;-74
2022/10/31 22:57:08;;;;;;;47.08;17.48;;;;;;;;;;10412425;28;20233;-73
2022/10/31 23:02:09;;;;;;;28.60;16.60;;;;;;;;;;10443115;28;20643;-73
2022/10/31 23:07:10;;;;;;;34.83;17.73;;;;;;;;;;10440458;28;20311;-74
2022/10/31 23:17:31;;;;;;;29.80;16.27;;;;;;;;;;10412429;28;21017;-74
2022/10/31 23:22:32;;;;;;;44.75;16.42;;;;;;;;;;10396074;28;20211;-74
2022/10/31 23:27:33;;;;;;;32.72;16.55;;;;;;;;;;10395907;28;20277;-74
2022/10/31 23:32:36;;;;;;;31.02;17.30;;;;;;;;;;10410612;28;20270;-74
2022/10/31 23:37:38;;;;;;;38.67;18.13;;;;;;;;;;10396688;28;20813;-74
2022/10/31 23:42:39;;;;;;;35.38;17.25;;;;;;;;;;10401368;28;20292;-73
2022/10/31 23:47:40;;;;;;;34.72;16.85;;;;;;;;;;10399583;28;20269;-74
2022/10/31 23:52:41;;;;;;;51.92;17.10;;;;;;;;;;10400946;28;20658;-74
2022/10/31 23:57:42;;;;;;;57.38;17.92;;;;;;;;;;10397958;28;20208;-74
